Time;durP1;ratioP1;P1;durP2;ratioP2;P2;SDS_P1;SDS_P2;PMS_P1;PMS_P2;Temp;Humidity;BMP_temperature;BMP_pressure;BME280_temperature;BME280_humidity;BME280_pressure;Samples;Min_cycle;Max_cycle;Signal;HPM_P1;HPM_P2
2021/09/26 00:01:57;;;;;;;;;25.75;19.50;;;;;;;;5071885;27;45928;-78
2021/09/26 00:04:24;;;;;;;;;23.50;16.00;;;;;;;;5066738;27;47558;-78
2021/09/26 00:06:49;;;;;;;;;16.25;14.50;;;;;;;;5065454;27;45764;-79
2021/09/26 00:09:14;;;;;;;;;17.75;14.00;;;;;;;;5083329;27;45945;-78
2021/09/26 00:11:40;;;;;;;;;18.25;15.25;;;;;;;;5071211;27;45672;-78
2021/09/26 00:14:06;;;;;;;;;15.50;14.50;;;;;;;;5071547;27;47371;-78
2021/09/26 00:16:31;;;;;;;;;15.00;14.00;;;;;;;;5071961;27;45607;-78
2021/09/26 00:18:57;;;;;;;;;15.25;15.25;;;;;;;;5066269;27;45638;-78
2021/09/26 00:21:22;;;;;;;;;18.00;13.00;;;;;;;;5071662;27;46053;-78
2021/09/26 00:23:49;;;;;;;;;16.33;14.00;;;;;;;;5072906;27;45799;-78
2021/09/26 00:26:14;;;;;;;;;17.50;14.00;;;;;;;;5071186;27;49080;-78
2021/09/26 00:28:39;;;;;;;;;17.75;16.00;;;;;;;;5076905;27;45519;-78
2021/09/26 00:31:05;;;;;;;;;16.25;15.25;;;;;;;;5069127;27;45788;-78
2021/09/26 00:33:31;;;;;;;;;21.25;14.75;;;;;;;;5075810;27;45569;-78
2021/09/26 00:35:57;;;;;;;;;12.50;11.25;;;;;;;;5098592;22;46276;-93
2021/09/26 00:41:15;;;;;;;;;14.25;14.00;;;;;;;;5059375;22;46606;-79
2021/09/26 00:43:40;;;;;;;;;15.25;12.00;;;;;;;;5047015;27;46992;-78
2021/09/26 00:46:06;;;;;;;;;13.75;12.25;;;;;;;;5045682;28;45643;-78
2021/09/26 00:48:32;;;;;;;;;16.00;13.25;;;;;;;;5050573;27;46318;-78
2021/09/26 00:50:57;;;;;;;;;13.25;13.25;;;;;;;;5039148;28;45599;-78
2021/09/26 00:53:23;;;;;;;;;15.25;13.50;;;;;;;;5031481;27;48171;-78
2021/09/26 00:55:49;;;;;;;;;13.25;11.25;;;;;;;;5024706;28;46112;-78
2021/09/26 00:58:14;;;;;;;;;17.00;15.00;;;;;;;;5055861;28;46012;-78
2021/09/26 01:03:11;;;;;;;;;13.75;13.25;;;;;;;;5026440;28;45802;-93
2021/09/26 01:05:37;;;;;;;;;16.50;14.50;;;;;;;;5028531;28;45709;-94
2021/09/26 01:08:02;;;;;;;;;19.00;13.75;;;;;;;;5035637;22;46107;-78
2021/09/26 01:10:35;;;;;;;;;17.50;13.00;;;;;;;;5006671;28;46002;-78
2021/09/26 01:13:04;;;;;;;;;17.50;12.75;;;;;;;;5025416;28;46188;-78
2021/09/26 01:15:45;;;;;;;;;16.25;12.75;;;;;;;;5033452;28;45821;-79
2021/09/26 01:18:16;;;;;;;;;14.75;11.75;;;;;;;;5031419;28;46440;-78
2021/09/26 01:20:52;;;;;;;;;16.50;13.00;;;;;;;;5011178;28;46360;-79
2021/09/26 01:23:20;;;;;;;;;16.50;11.50;;;;;;;;5029896;28;46118;-78
2021/09/26 01:25:58;;;;;;;;;12.00;11.75;;;;;;;;5027855;28;45906;-78
2021/09/26 01:28:32;;;;;;;;;14.00;12.00;;;;;;;;5028721;28;47168;-78
2021/09/26 01:31:00;;;;;;;;;12.00;11.25;;;;;;;;5027354;28;45906;-78
2021/09/26 01:33:31;;;;;;;;;11.50;10.50;;;;;;;;5032695;28;45500;-78
2021/09/26 01:35:59;;;;;;;;;14.00;11.75;;;;;;;;5010026;28;45484;-77
2021/09/26 01:38:32;;;;;;;;;14.25;13.50;;;;;;;;5027213;28;45834;-78
2021/09/26 01:41:00;;;;;;;;;16.00;13.25;;;;;;;;5032336;28;45948;-78
2021/09/26 01:43:34;;;;;;;;;14.25;12.75;;;;;;;;5033864;28;45588;-78
2021/09/26 01:46:01;;;;;;;;;15.25;11.75;;;;;;;;5027789;28;48485;-78
2021/09/26 01:48:32;;;;;;;;;13.25;12.00;;;;;;;;5036731;28;45548;-78
2021/09/26 01:50:59;;;;;;;;;16.00;13.75;;;;;;;;5029532;28;52312;-78
2021/09/26 01:53:26;;;;;;;;;11.25;11.25;;;;;;;;5032510;28;47154;-78
2021/09/26 01:55:52;;;;;;;;;13.25;12.50;;;;;;;;5032094;28;45668;-78
2021/09/26 01:58:19;;;;;;;;;15.00;13.50;;;;;;;;5032902;28;46802;-78
2021/09/26 02:00:45;;;;;;;;;14.25;14.25;;;;;;;;5027808;28;45683;-78
2021/09/26 02:03:10;;;;;;;;;11.50;11.50;;;;;;;;5032252;28;46407;-78
2021/09/26 02:05:40;;;;;;;;;12.50;12.00;;;;;;;;5029194;28;45862;-78
2021/09/26 02:08:06;;;;;;;;;13.00;11.75;;;;;;;;5033780;28;45590;-78
2021/09/26 02:10:32;;;;;;;;;13.00;11.25;;;;;;;;5028343;28;55291;-78
2021/09/26 02:12:57;;;;;;;;;14.50;12.00;;;;;;;;5008947;28;48435;-78
2021/09/26 02:15:24;;;;;;;;;12.00;11.00;;;;;;;;5029741;28;45782;-78
2021/09/26 02:17:51;;;;;;;;;14.50;12.25;;;;;;;;5028444;28;47268;-78
2021/09/26 02:20:17;;;;;;;;;12.25;11.25;;;;;;;;5031448;28;57402;-78
2021/09/26 02:22:43;;;;;;;;;15.00;15.00;;;;;;;;5011550;28;47505;-78
2021/09/26 02:25:09;;;;;;;;;18.25;14.25;;;;;;;;5028699;28;45710;-78
2021/09/26 02:27:35;;;;;;;;;15.75;13.25;;;;;;;;5031308;28;45648;-78
2021/09/26 02:30:00;;;;;;;;;17.25;13.25;;;;;;;;5020440;28;45901;-77
2021/09/26 02:32:25;;;;;;;;;13.00;11.75;;;;;;;;5035246;28;45739;-78
2021/09/26 02:34:51;;;;;;;;;19.00;12.00;;;;;;;;5035546;28;45565;-78
2021/09/26 02:37:16;;;;;;;;;13.00;11.75;;;;;;;;5028552;28;47249;-78
2021/09/26 02:39:42;;;;;;;;;16.75;14.00;;;;;;;;5025554;28;46103;-78
2021/09/26 02:42:07;;;;;;;;;20.00;15.00;;;;;;;;5015734;28;48363;-78
2021/09/26 02:44:44;;;;;;;;;17.67;15.00;;;;;;;;5013325;28;46131;-78
2021/09/26 02:47:14;;;;;;;;;20.00;15.75;;;;;;;;5029290;28;45858;-78
2021/09/26 02:49:40;;;;;;;;;17.00;16.00;;;;;;;;5026163;28;45639;-78
2021/09/26 02:52:07;;;;;;;;;25.25;18.75;;;;;;;;5027175;28;45591;-78
2021/09/26 02:54:37;;;;;;;;;16.50;15.00;;;;;;;;5020935;28;45670;-78
2021/09/26 02:57:03;;;;;;;;;25.50;18.00;;;;;;;;5030962;28;46047;-78
2021/09/26 02:59:28;;;;;;;;;21.00;16.50;;;;;;;;5034824;28;48780;-78
2021/09/26 03:01:53;;;;;;;;;21.67;15.33;;;;;;;;5015451;28;47482;-78
2021/09/26 03:04:19;;;;;;;;;21.25;15.75;;;;;;;;5029611;28;45912;-78
2021/09/26 03:06:45;;;;;;;;;22.00;18.00;;;;;;;;5017471;28;47432;-78
2021/09/26 03:09:10;;;;;;;;;19.00;13.75;;;;;;;;5023243;28;45549;-78
2021/09/26 03:11:35;;;;;;;;;15.00;13.25;;;;;;;;5031011;28;46355;-78
2021/09/26 03:14:01;;;;;;;;;14.50;12.75;;;;;;;;5029902;28;45935;-77
2021/09/26 03:16:26;;;;;;;;;19.50;14.25;;;;;;;;5029944;28;46571;-78
2021/09/26 03:18:51;;;;;;;;;18.33;15.00;;;;;;;;5025539;28;45897;-78
2021/09/26 03:21:16;;;;;;;;;18.33;16.67;;;;;;;;5030195;28;45826;-78
2021/09/26 03:23:41;;;;;;;;;15.75;13.50;;;;;;;;5025469;28;46700;-77
2021/09/26 03:26:07;;;;;;;;;14.75;12.00;;;;;;;;5032744;28;45608;-77
2021/09/26 03:28:32;;;;;;;;;18.25;16.75;;;;;;;;5011458;28;54750;-77
2021/09/26 03:30:57;;;;;;;;;18.75;15.50;;;;;;;;5053678;22;46131;-92
2021/09/26 03:33:23;;;;;;;;;23.25;18.75;;;;;;;;5034923;22;45742;-79
2021/09/26 03:35:48;;;;;;;;;21.33;17.00;;;;;;;;5008164;28;50624;-79
2021/09/26 03:38:13;;;;;;;;;24.00;20.00;;;;;;;;5029395;28;46237;-79
2021/09/26 03:40:38;;;;;;;;;25.25;21.25;;;;;;;;5018560;28;46709;-80
2021/09/26 03:43:04;;;;;;;;;25.75;20.25;;;;;;;;5022668;28;45821;-79
2021/09/26 03:45:29;;;;;;;;;22.50;18.25;;;;;;;;5033088;28;46079;-77
2021/09/26 03:47:54;;;;;;;;;19.50;18.25;;;;;;;;5018779;28;45623;-77
2021/09/26 03:50:20;;;;;;;;;18.75;16.00;;;;;;;;5033607;28;46191;-78
2021/09/26 03:52:48;;;;;;;;;24.25;20.25;;;;;;;;5092711;22;45568;-93
2021/09/26 03:55:15;;;;;;;;;26.50;22.25;;;;;;;;5068080;27;45500;-93
2021/09/26 03:57:41;;;;;;;;;26.00;23.50;;;;;;;;5060255;22;45584;-79
2021/09/26 04:00:07;;;;;;;;;26.75;25.25;;;;;;;;5060585;27;52779;-79
2021/09/26 04:02:32;;;;;;;;;28.75;22.25;;;;;;;;5055656;27;45575;-79
2021/09/26 04:04:58;;;;;;;;;21.67;21.67;;;;;;;;5057590;28;46038;-79
2021/09/26 04:07:23;;;;;;;;;28.50;22.75;;;;;;;;5058284;27;47288;-78
2021/09/26 04:09:48;;;;;;;;;25.67;22.00;;;;;;;;5056420;27;46271;-80
2021/09/26 04:12:13;;;;;;;;;31.33;24.00;;;;;;;;5061017;28;45575;-79
2021/09/26 04:14:39;;;;;;;;;34.33;27.00;;;;;;;;5057008;27;45522;-79
2021/09/26 04:17:04;;;;;;;;;27.25;23.50;;;;;;;;5060035;28;45517;-79
2021/09/26 04:19:29;;;;;;;;;29.00;23.50;;;;;;;;5055433;27;46305;-78
2021/09/26 04:21:55;;;;;;;;;32.00;25.00;;;;;;;;5058709;27;45511;-80
2021/09/26 04:24:20;;;;;;;;;30.75;26.75;;;;;;;;5061907;27;45701;-79
2021/09/26 04:26:45;;;;;;;;;29.25;26.75;;;;;;;;5057455;27;45539;-79
2021/09/26 04:29:11;;;;;;;;;24.25;21.75;;;;;;;;5057309;27;46237;-79
2021/09/26 04:31:36;;;;;;;;;21.00;21.00;;;;;;;;5057743;27;45640;-79
2021/09/26 04:34:02;;;;;;;;;28.25;21.50;;;;;;;;5057961;28;45659;-79
2021/09/26 04:36:27;;;;;;;;;23.00;21.00;;;;;;;;5060980;27;45762;-79
2021/09/26 04:38:52;;;;;;;;;20.00;18.00;;;;;;;;5056590;28;47149;-79
2021/09/26 04:41:17;;;;;;;;;19.00;18.33;;;;;;;;5057652;27;46054;-79
2021/09/26 04:43:43;;;;;;;;;19.50;17.50;;;;;;;;5057728;27;45535;-78
2021/09/26 04:46:08;;;;;;;;;22.25;20.00;;;;;;;;5053946;28;45714;-77
2021/09/26 04:48:33;;;;;;;;;17.25;15.50;;;;;;;;5059291;27;45842;-78
2021/09/26 04:50:58;;;;;;;;;15.67;15.67;;;;;;;;5060706;28;45860;-78
2021/09/26 04:53:24;;;;;;;;;18.75;16.00;;;;;;;;5058530;28;45551;-78
2021/09/26 04:55:49;;;;;;;;;15.75;13.00;;;;;;;;5056691;27;45532;-78
2021/09/26 04:58:14;;;;;;;;;20.75;14.00;;;;;;;;5054700;28;48027;-77
2021/09/26 05:00:40;;;;;;;;;18.75;16.00;;;;;;;;5058185;27;47273;-78
2021/09/26 05:03:05;;;;;;;;;16.75;16.25;;;;;;;;5060267;27;45616;-78
2021/09/26 05:05:30;;;;;;;;;16.75;15.00;;;;;;;;5058826;27;45589;-78
2021/09/26 05:07:56;;;;;;;;;18.50;16.50;;;;;;;;5060773;27;45555;-78
2021/09/26 05:10:21;;;;;;;;;18.50;18.50;;;;;;;;5056975;28;45487;-78
2021/09/26 05:12:47;;;;;;;;;21.25;19.25;;;;;;;;5058229;27;45527;-78
2021/09/26 05:15:13;;;;;;;;;24.50;18.75;;;;;;;;5063704;27;45799;-78
2021/09/26 05:17:38;;;;;;;;;19.00;17.75;;;;;;;;5061079;27;46516;-78
2021/09/26 05:20:04;;;;;;;;;22.75;19.75;;;;;;;;5059778;27;45678;-78
2021/09/26 05:22:29;;;;;;;;;20.75;20.75;;;;;;;;5060949;27;45638;-78
2021/09/26 05:24:54;;;;;;;;;25.25;21.75;;;;;;;;5057878;27;45494;-78
2021/09/26 05:27:20;;;;;;;;;28.25;21.00;;;;;;;;5066147;27;45833;-78
2021/09/26 05:29:45;;;;;;;;;29.50;24.75;;;;;;;;5057526;27;54666;-78
2021/09/26 05:32:10;;;;;;;;;23.50;21.50;;;;;;;;5064240;27;45635;-78
2021/09/26 05:34:36;;;;;;;;;21.00;18.33;;;;;;;;5060273;28;46275;-78
2021/09/26 05:37:02;;;;;;;;;25.75;20.75;;;;;;;;5057676;27;46784;-78
2021/09/26 05:39:28;;;;;;;;;23.00;18.50;;;;;;;;5061331;27;46766;-78
2021/09/26 05:41:54;;;;;;;;;21.00;18.75;;;;;;;;5060770;27;45597;-78
2021/09/26 05:44:19;;;;;;;;;20.25;19.75;;;;;;;;5057737;27;45693;-79
2021/09/26 05:46:44;;;;;;;;;21.50;17.50;;;;;;;;5059031;28;48308;-78
2021/09/26 05:49:10;;;;;;;;;20.25;20.25;;;;;;;;5057651;27;45839;-79
2021/09/26 05:51:35;;;;;;;;;19.25;16.00;;;;;;;;5059663;28;45874;-79
2021/09/26 05:54:00;;;;;;;;;17.50;17.50;;;;;;;;5063114;27;45569;-79
2021/09/26 05:56:25;;;;;;;;;17.33;16.33;;;;;;;;5061027;27;46654;-79
2021/09/26 05:58:51;;;;;;;;;17.00;17.00;;;;;;;;5058925;27;45531;-79
2021/09/26 06:01:16;;;;;;;;;18.75;13.25;;;;;;;;5058950;27;45440;-79
2021/09/26 06:03:41;;;;;;;;;18.25;15.25;;;;;;;;5060326;27;45679;-79
2021/09/26 06:06:07;;;;;;;;;16.25;12.00;;;;;;;;5061860;27;47136;-79
2021/09/26 06:08:32;;;;;;;;;22.75;16.50;;;;;;;;5060612;27;45610;-79
2021/09/26 06:10:57;;;;;;;;;21.00;19.00;;;;;;;;5057888;28;45493;-79
2021/09/26 06:13:23;;;;;;;;;15.50;13.50;;;;;;;;5059936;28;45469;-80
2021/09/26 06:15:48;;;;;;;;;19.25;17.25;;;;;;;;5061612;27;45691;-79
2021/09/26 06:18:13;;;;;;;;;16.50;14.25;;;;;;;;5064487;27;45591;-80
2021/09/26 06:20:39;;;;;;;;;18.00;14.33;;;;;;;;5063222;27;45868;-80
2021/09/26 06:25:33;;;;;;;;;20.50;17.50;;;;;;;;5027034;28;46061;-79
2021/09/26 06:27:58;;;;;;;;;21.00;16.33;;;;;;;;5010069;28;46180;-80
2021/09/26 06:30:24;;;;;;;;;18.25;15.75;;;;;;;;5030224;28;45949;-79
2021/09/26 06:32:49;;;;;;;;;20.00;17.25;;;;;;;;5016971;28;45866;-80
2021/09/26 06:35:16;;;;;;;;;19.50;15.00;;;;;;;;5034277;28;46444;-79
2021/09/26 06:37:41;;;;;;;;;17.25;15.25;;;;;;;;5014184;28;45741;-79
2021/09/26 06:40:07;;;;;;;;;16.00;16.00;;;;;;;;5032125;28;45599;-79
2021/09/26 06:45:40;;;;;;;;;20.50;17.00;;;;;;;;5039343;28;47360;-94
2021/09/26 06:48:05;;;;;;;;;19.25;18.00;;;;;;;;5040315;22;45773;-79
2021/09/26 06:50:31;;;;;;;;;20.67;15.33;;;;;;;;5023170;28;45804;-78
2021/09/26 06:52:56;;;;;;;;;23.75;20.00;;;;;;;;5032044;28;46217;-79
2021/09/26 06:55:21;;;;;;;;;21.50;19.00;;;;;;;;5031197;28;46391;-79
2021/09/26 06:57:46;;;;;;;;;20.25;19.00;;;;;;;;5025112;28;45727;-80
2021/09/26 07:00:12;;;;;;;;;20.67;18.33;;;;;;;;5014422;28;47244;-79
2021/09/26 07:02:37;;;;;;;;;22.00;16.50;;;;;;;;5026735;28;46066;-79
2021/09/26 07:05:03;;;;;;;;;21.75;18.50;;;;;;;;5028120;28;46072;-79
2021/09/26 07:07:28;;;;;;;;;20.00;18.75;;;;;;;;5029617;28;46009;-79
2021/09/26 07:09:53;;;;;;;;;20.25;18.00;;;;;;;;5027499;28;45640;-79
2021/09/26 07:12:19;;;;;;;;;22.00;21.00;;;;;;;;5027144;28;45981;-80
2021/09/26 07:14:44;;;;;;;;;26.25;18.50;;;;;;;;5031413;28;46199;-79
2021/09/26 07:17:10;;;;;;;;;20.00;19.00;;;;;;;;5028605;28;45845;-79
2021/09/26 07:19:35;;;;;;;;;19.50;17.00;;;;;;;;5034045;28;45702;-79
2021/09/26 07:22:00;;;;;;;;;20.25;15.50;;;;;;;;5025474;28;46786;-79
2021/09/26 07:24:26;;;;;;;;;25.00;23.00;;;;;;;;5020945;28;47441;-79
2021/09/26 07:26:51;;;;;;;;;25.75;20.25;;;;;;;;5026532;28;46184;-79
2021/09/26 07:29:16;;;;;;;;;25.00;18.50;;;;;;;;5030587;28;45584;-79
2021/09/26 07:31:41;;;;;;;;;21.50;16.75;;;;;;;;5031624;28;45532;-79
2021/09/26 07:34:07;;;;;;;;;21.50;19.25;;;;;;;;5022645;28;46761;-79
2021/09/26 07:36:32;;;;;;;;;18.25;16.00;;;;;;;;5024555;28;45884;-79
2021/09/26 07:38:57;;;;;;;;;17.00;17.00;;;;;;;;5032206;28;45540;-79
2021/09/26 07:41:23;;;;;;;;;18.50;14.50;;;;;;;;5024308;28;45633;-79
2021/09/26 07:43:48;;;;;;;;;20.00;15.50;;;;;;;;5026798;28;46553;-79
2021/09/26 07:46:14;;;;;;;;;19.50;18.00;;;;;;;;5032946;28;46497;-78
2021/09/26 07:48:39;;;;;;;;;19.50;17.00;;;;;;;;5040690;28;45651;-79
2021/09/26 07:51:04;;;;;;;;;18.67;15.33;;;;;;;;5041563;28;45654;-79
2021/09/26 07:53:30;;;;;;;;;17.25;16.00;;;;;;;;5052527;27;45657;-79
2021/09/26 07:55:55;;;;;;;;;17.75;16.25;;;;;;;;5046327;27;45532;-79
2021/09/26 07:58:21;;;;;;;;;22.00;18.00;;;;;;;;5048858;28;45590;-79
2021/09/26 08:00:46;;;;;;;;;16.00;15.25;;;;;;;;5048349;28;46664;-79
2021/09/26 08:03:11;;;;;;;;;21.75;18.75;;;;;;;;5055019;28;45941;-79
2021/09/26 08:05:37;;;;;;;;;18.50;16.25;;;;;;;;5031928;28;45553;-79
2021/09/26 08:08:02;;;;;;;;;18.75;17.00;;;;;;;;5046002;28;45481;-79
2021/09/26 08:10:27;;;;;;;;;18.00;16.25;;;;;;;;5049157;28;45606;-79
2021/09/26 08:12:53;;;;;;;;;19.75;16.75;;;;;;;;5040252;27;47342;-79
2021/09/26 08:15:18;;;;;;;;;18.75;15.25;;;;;;;;5048015;28;45480;-79
2021/09/26 08:17:43;;;;;;;;;19.50;16.25;;;;;;;;5038249;28;54733;-79
2021/09/26 08:20:09;;;;;;;;;19.75;15.50;;;;;;;;5052436;28;45569;-79
2021/09/26 08:22:34;;;;;;;;;19.00;16.50;;;;;;;;5049426;28;53338;-80
2021/09/26 08:25:00;;;;;;;;;15.00;14.00;;;;;;;;5047590;28;45582;-79
2021/09/26 08:27:26;;;;;;;;;15.00;14.50;;;;;;;;5051149;28;45531;-79
2021/09/26 08:29:51;;;;;;;;;17.75;16.25;;;;;;;;5043261;28;45527;-79
2021/09/26 08:32:16;;;;;;;;;15.00;14.00;;;;;;;;5044875;28;51633;-79
2021/09/26 08:34:42;;;;;;;;;19.25;15.25;;;;;;;;5046844;28;46139;-79
2021/09/26 08:37:07;;;;;;;;;15.50;12.50;;;;;;;;5027662;28;46038;-79
2021/09/26 08:39:32;;;;;;;;;18.50;14.25;;;;;;;;5055825;28;45563;-79
2021/09/26 08:41:57;;;;;;;;;17.00;14.00;;;;;;;;5042495;28;45562;-78
2021/09/26 08:44:24;;;;;;;;;16.75;14.25;;;;;;;;5044389;28;45716;-77
2021/09/26 08:46:50;;;;;;;;;15.50;15.50;;;;;;;;5050216;27;46708;-78
2021/09/26 08:49:16;;;;;;;;;18.75;14.25;;;;;;;;5047468;28;45593;-77
2021/09/26 08:51:43;;;;;;;;;15.25;13.75;;;;;;;;5045239;28;46006;-78
2021/09/26 08:54:08;;;;;;;;;14.75;14.00;;;;;;;;5036108;28;45845;-78
2021/09/26 08:56:34;;;;;;;;;16.50;14.25;;;;;;;;5030211;28;45628;-78
2021/09/26 08:58:59;;;;;;;;;13.75;13.50;;;;;;;;5049656;27;45787;-78
2021/09/26 09:01:26;;;;;;;;;15.00;14.00;;;;;;;;5028541;28;48172;-77
2021/09/26 09:03:51;;;;;;;;;16.00;13.00;;;;;;;;5041960;28;45730;-78
2021/09/26 09:06:17;;;;;;;;;16.00;14.33;;;;;;;;5054688;28;45691;-78
2021/09/26 09:08:42;;;;;;;;;20.25;17.00;;;;;;;;5028800;28;51944;-78
2021/09/26 09:11:08;;;;;;;;;16.25;14.50;;;;;;;;5044649;28;45678;-78
2021/09/26 09:13:39;;;;;;;;;15.50;13.75;;;;;;;;5031562;28;46196;-78
2021/09/26 09:18:47;;;;;;;;;14.25;14.25;;;;;;;;5073994;22;47344;-79
2021/09/26 09:21:23;;;;;;;;;17.50;16.00;;;;;;;;5071046;27;45694;-79
2021/09/26 09:23:50;;;;;;;;;15.50;13.50;;;;;;;;5065657;27;46011;-80
2021/09/26 09:26:15;;;;;;;;;16.25;13.50;;;;;;;;5066401;27;45706;-79
2021/09/26 09:28:40;;;;;;;;;19.00;14.75;;;;;;;;5062473;27;46659;-79
2021/09/26 09:31:07;;;;;;;;;15.75;13.25;;;;;;;;5068617;27;54954;-79
2021/09/26 09:33:55;;;;;;;;;12.75;12.75;;;;;;;;5053517;22;46198;-94
2021/09/26 09:36:22;;;;;;;;;18.50;14.00;;;;;;;;5040146;22;46279;-78
2021/09/26 09:38:49;;;;;;;;;17.25;15.75;;;;;;;;5011018;28;45842;-78
2021/09/26 09:41:33;;;;;;;;;14.25;12.75;;;;;;;;5025882;28;47651;-77
2021/09/26 09:43:58;;;;;;;;;14.25;14.25;;;;;;;;5029699;28;45677;-79
2021/09/26 09:46:31;;;;;;;;;14.25;13.75;;;;;;;;5031085;28;45488;-79
2021/09/26 09:49:08;;;;;;;;;18.25;15.00;;;;;;;;5025560;28;53400;-79
2021/09/26 09:51:33;;;;;;;;;15.75;12.75;;;;;;;;5030604;28;45568;-80
2021/09/26 09:54:02;;;;;;;;;16.25;15.00;;;;;;;;5022175;28;45660;-79
2021/09/26 09:56:27;;;;;;;;;16.00;13.25;;;;;;;;5028237;28;46773;-79
2021/09/26 09:58:56;;;;;;;;;14.67;14.33;;;;;;;;5028164;28;52193;-80
2021/09/26 10:01:29;;;;;;;;;14.25;12.75;;;;;;;;5009452;28;48033;-80
2021/09/26 10:03:56;;;;;;;;;15.50;12.50;;;;;;;;5028933;28;49272;-79
2021/09/26 10:06:27;;;;;;;;;15.25;14.00;;;;;;;;5033511;28;45619;-79
2021/09/26 10:08:54;;;;;;;;;18.00;15.75;;;;;;;;5027037;28;45881;-79
2021/09/26 10:11:19;;;;;;;;;13.50;13.25;;;;;;;;5034010;28;45856;-79
2021/09/26 10:13:45;;;;;;;;;17.50;15.25;;;;;;;;5010061;28;46505;-79
2021/09/26 10:16:11;;;;;;;;;15.00;11.75;;;;;;;;5030739;28;45837;-79
2021/09/26 10:18:36;;;;;;;;;19.00;15.75;;;;;;;;5021867;28;45810;-79
2021/09/26 10:21:03;;;;;;;;;21.75;15.50;;;;;;;;5031294;28;46608;-79
2021/09/26 10:23:28;;;;;;;;;13.50;12.75;;;;;;;;5033887;28;45608;-79
2021/09/26 10:25:57;;;;;;;;;14.75;12.75;;;;;;;;5027647;28;45445;-80
2021/09/26 10:28:28;;;;;;;;;17.50;14.25;;;;;;;;5032713;28;45686;-80
2021/09/26 10:30:57;;;;;;;;;15.75;15.25;;;;;;;;5029562;28;45705;-79
2021/09/26 10:33:25;;;;;;;;;15.00;13.00;;;;;;;;5023792;28;47654;-79
2021/09/26 10:35:54;;;;;;;;;17.50;14.50;;;;;;;;5020530;28;45611;-79
2021/09/26 10:38:20;;;;;;;;;13.25;12.00;;;;;;;;5014354;28;45659;-79
2021/09/26 10:40:46;;;;;;;;;15.50;14.75;;;;;;;;5027788;28;47625;-80
2021/09/26 10:43:27;;;;;;;;;15.00;10.50;;;;;;;;5029831;28;45627;-79
2021/09/26 10:46:11;;;;;;;;;14.50;13.50;;;;;;;;5034902;28;45692;-79
2021/09/26 10:48:55;;;;;;;;;17.00;11.50;;;;;;;;5029835;28;46010;-78
2021/09/26 10:51:40;;;;;;;;;14.50;13.25;;;;;;;;5026630;28;46349;-78
2021/09/26 10:54:24;;;;;;;;;15.25;12.00;;;;;;;;4993441;28;45537;-80
2021/09/26 10:56:52;;;;;;;;;13.25;13.00;;;;;;;;4992081;28;46310;-79
2021/09/26 10:59:18;;;;;;;;;13.25;13.25;;;;;;;;4984873;28;57784;-79
2021/09/26 11:01:44;;;;;;;;;13.50;13.00;;;;;;;;4983993;28;45783;-78
2021/09/26 11:04:12;;;;;;;;;16.50;15.25;;;;;;;;4986270;28;46190;-79
2021/09/26 11:06:38;;;;;;;;;15.00;12.75;;;;;;;;4985606;28;46867;-80
2021/09/26 11:09:08;;;;;;;;;13.50;10.25;;;;;;;;5005801;28;45693;-79
2021/09/26 11:11:53;;;;;;;;;12.25;10.00;;;;;;;;4989923;28;46216;-79
2021/09/26 11:14:18;;;;;;;;;10.00;9.50;;;;;;;;4989450;28;45695;-79
2021/09/26 11:16:47;;;;;;;;;12.00;11.00;;;;;;;;4987707;28;45942;-78
2021/09/26 11:19:13;;;;;;;;;16.25;13.75;;;;;;;;4986860;28;45503;-78
2021/09/26 11:21:38;;;;;;;;;13.75;11.00;;;;;;;;4981900;28;45549;-80
2021/09/26 11:24:18;;;;;;;;;20.00;18.33;;;;;;;;4991623;28;45624;-79
2021/09/26 11:26:56;;;;;;;;;18.25;14.00;;;;;;;;4983598;28;46270;-79
2021/09/26 11:29:21;;;;;;;;;15.25;14.50;;;;;;;;5005665;28;45858;-79
2021/09/26 11:31:47;;;;;;;;;13.50;10.50;;;;;;;;5018316;28;45922;-78
2021/09/26 11:34:33;;;;;;;;;12.00;12.00;;;;;;;;5029864;28;49331;-78
2021/09/26 11:36:58;;;;;;;;;11.25;11.25;;;;;;;;5020706;28;45599;-78
2021/09/26 11:39:24;;;;;;;;;12.25;11.00;;;;;;;;5030317;28;46601;-80
2021/09/26 11:41:49;;;;;;;;;11.00;9.50;;;;;;;;5009983;28;47378;-78
2021/09/26 11:44:16;;;;;;;;;8.50;8.50;;;;;;;;5029524;28;46490;-78
2021/09/26 11:46:45;;;;;;;;;13.50;11.00;;;;;;;;5025710;28;45690;-77
2021/09/26 11:49:11;;;;;;;;;9.50;9.50;;;;;;;;5018715;28;45583;-77
2021/09/26 11:51:36;;;;;;;;;11.50;11.00;;;;;;;;5033333;28;46257;-78
2021/09/26 11:54:02;;;;;;;;;10.50;9.00;;;;;;;;5033298;28;47281;-78
2021/09/26 11:56:30;;;;;;;;;12.25;11.50;;;;;;;;5030710;28;45698;-77
2021/09/26 11:58:57;;;;;;;;;18.75;11.50;;;;;;;;5032898;28;45779;-77
2021/09/26 12:01:33;;;;;;;;;9.25;9.00;;;;;;;;5029795;28;45876;-77
2021/09/26 12:04:09;;;;;;;;;8.75;8.75;;;;;;;;5027445;28;45584;-77
2021/09/26 12:06:35;;;;;;;;;11.50;9.75;;;;;;;;5020202;28;45717;-77
2021/09/26 12:09:00;;;;;;;;;9.00;8.25;;;;;;;;5034365;28;45679;-78
2021/09/26 12:11:25;;;;;;;;;12.00;10.00;;;;;;;;5446318;22;46102;-78
2021/09/26 12:13:53;;;;;;;;;13.25;9.00;;;;;;;;5064960;27;47620;-77
2021/09/26 12:16:19;;;;;;;;;10.25;8.75;;;;;;;;5063861;27;45787;-77
2021/09/26 12:18:52;;;;;;;;;9.25;8.75;;;;;;;;5066547;27;45715;-78
2021/09/26 12:21:18;;;;;;;;;9.75;8.50;;;;;;;;5069713;27;45881;-77
2021/09/26 12:26:09;;;;;;;;;12.50;9.75;;;;;;;;4810832;22;45749;-79
2021/09/26 12:28:37;;;;;;;;;6.50;6.50;;;;;;;;5064194;27;47248;-79
2021/09/26 12:31:03;;;;;;;;;9.50;7.75;;;;;;;;5046973;27;47203;-78
2021/09/26 12:33:41;;;;;;;;;8.00;7.00;;;;;;;;5076029;27;45716;-79
2021/09/26 12:36:07;;;;;;;;;8.50;7.75;;;;;;;;5067344;27;45678;-79
2021/09/26 12:38:38;;;;;;;;;9.00;7.50;;;;;;;;5052719;27;45671;-79
2021/09/26 12:41:12;;;;;;;;;6.25;6.25;;;;;;;;5049981;27;47252;-78
2021/09/26 12:43:49;;;;;;;;;10.25;8.00;;;;;;;;5056343;28;45524;-78
2021/09/26 12:46:16;;;;;;;;;6.75;6.75;;;;;;;;5067634;27;45788;-78
2021/09/26 12:48:45;;;;;;;;;8.50;7.00;;;;;;;;5048597;27;46849;-78
2021/09/26 12:51:12;;;;;;;;;9.25;8.00;;;;;;;;5071672;27;46058;-77
2021/09/26 12:53:44;;;;;;;;;7.00;6.75;;;;;;;;5063551;27;45565;-77
2021/09/26 12:56:11;;;;;;;;;9.75;7.25;;;;;;;;5067038;27;45545;-77
2021/09/26 12:58:39;;;;;;;;;8.25;8.25;;;;;;;;5069806;27;47237;-77
2021/09/26 13:01:16;;;;;;;;;10.25;7.75;;;;;;;;5062033;27;46216;-78
2021/09/26 13:04:00;;;;;;;;;7.75;7.00;;;;;;;;5067436;27;45973;-77
2021/09/26 13:06:46;;;;;;;;;7.50;7.50;;;;;;;;5064736;27;46200;-77
2021/09/26 13:09:13;;;;;;;;;7.75;6.75;;;;;;;;5066150;27;45931;-78
2021/09/26 13:11:40;;;;;;;;;6.50;6.50;;;;;;;;5051913;27;47391;-78
2021/09/26 13:14:11;;;;;;;;;10.75;7.75;;;;;;;;5066739;27;46367;-77
2021/09/26 13:16:48;;;;;;;;;8.75;8.50;;;;;;;;5065147;27;46003;-77
2021/09/26 13:19:25;;;;;;;;;9.00;9.00;;;;;;;;5064023;27;45626;-77
2021/09/26 13:22:02;;;;;;;;;8.25;7.75;;;;;;;;5062829;27;45597;-77
2021/09/26 13:24:27;;;;;;;;;9.00;8.25;;;;;;;;5057680;27;46514;-77
2021/09/26 13:26:53;;;;;;;;;11.67;8.00;;;;;;;;5068771;27;45640;-77
2021/09/26 13:29:29;;;;;;;;;11.25;8.25;;;;;;;;5068506;27;45579;-78
2021/09/26 13:31:56;;;;;;;;;8.25;6.75;;;;;;;;5063941;27;46488;-77
2021/09/26 13:34:32;;;;;;;;;16.75;11.75;;;;;;;;5055137;27;54806;-77
2021/09/26 13:37:07;;;;;;;;;9.50;7.75;;;;;;;;5045006;27;355052;-78
2021/09/26 13:47:19;;;;;;;;;0.00;0.00;;;;;;;;2865501;27;44553105;-77
